sensor_id;sensor_type;location;lat;lon;timestamp;P1;durP1;ratioP1;P2;durP2;ratioP2
76786;SDS011;65739;51.482;5.702;2023-03-14T00:02:09;3.00;;;1.10;;
76786;SDS011;65739;51.482;5.702;2023-03-14T00:04:34;7.75;;;1.73;;
76786;SDS011;65739;51.482;5.702;2023-03-14T00:07:00;5.03;;;1.70;;
76786;SDS011;65739;51.482;5.702;2023-03-14T00:09:26;7.15;;;1.35;;
76786;SDS011;65739;51.482;5.702;2023-03-14T00:11:52;6.72;;;1.50;;
76786;SDS011;65739;51.482;5.702;2023-03-14T00:14:18;5.10;;;1.38;;
76786;SDS011;65739;51.482;5.702;2023-03-14T00:16:46;4.57;;;1.38;;
76786;SDS011;65739;51.482;5.702;2023-03-14T00:19:12;4.03;;;1.60;;
76786;SDS011;65739;51.482;5.702;2023-03-14T00:21:38;9.27;;;1.67;;
76786;SDS011;65739;51.482;5.702;2023-03-14T00:24:03;6.40;;;1.58;;
76786;SDS011;65739;51.482;5.702;2023-03-14T00:26:29;8.65;;;1.33;;
76786;SDS011;65739;51.482;5.702;2023-03-14T00:28:55;4.88;;;1.23;;
76786;SDS011;65739;51.482;5.702;2023-03-14T00:31:20;4.82;;;1.15;;
76786;SDS011;65739;51.482;5.702;2023-03-14T00:33:46;3.45;;;0.93;;
76786;SDS011;65739;51.482;5.702;2023-03-14T00:36:13;6.38;;;1.50;;
76786;SDS011;65739;51.482;5.702;2023-03-14T00:38:41;7.70;;;1.33;;
76786;SDS011;65739;51.482;5.702;2023-03-14T00:41:09;3.13;;;0.98;;
76786;SDS011;65739;51.482;5.702;2023-03-14T00:43:37;5.95;;;0.82;;
76786;SDS011;65739;51.482;5.702;2023-03-14T00:46:03;8.25;;;1.55;;
76786;SDS011;65739;51.482;5.702;2023-03-14T00:48:29;6.63;;;1.23;;
76786;SDS011;65739;51.482;5.702;2023-03-14T00:50:55;5.43;;;1.30;;
76786;SDS011;65739;51.482;5.702;2023-03-14T00:53:20;3.92;;;0.90;;
76786;SDS011;65739;51.482;5.702;2023-03-14T00:55:46;7.32;;;1.25;;
76786;SDS011;65739;51.482;5.702;2023-03-14T00:58:13;5.40;;;0.93;;
76786;SDS011;65739;51.482;5.702;2023-03-14T01:00:39;7.05;;;1.05;;
76786;SDS011;65739;51.482;5.702;2023-03-14T01:03:05;7.65;;;1.08;;
76786;SDS011;65739;51.482;5.702;2023-03-14T01:05:31;7.05;;;1.00;;
76786;SDS011;65739;51.482;5.702;2023-03-14T01:07:57;3.92;;;0.75;;
76786;SDS011;65739;51.482;5.702;2023-03-14T01:10:23;3.85;;;1.23;;
76786;SDS011;65739;51.482;5.702;2023-03-14T01:12:48;6.30;;;1.20;;
76786;SDS011;65739;51.482;5.702;2023-03-14T01:15:14;7.47;;;1.27;;
76786;SDS011;65739;51.482;5.702;2023-03-14T01:17:40;7.95;;;1.00;;
76786;SDS011;65739;51.482;5.702;2023-03-14T01:20:07;4.63;;;0.90;;
76786;SDS011;65739;51.482;5.702;2023-03-14T01:22:35;3.58;;;0.80;;
76786;SDS011;65739;51.482;5.702;2023-03-14T01:25:03;7.07;;;1.10;;
76786;SDS011;65739;51.482;5.702;2023-03-14T01:27:29;4.25;;;1.30;;
76786;SDS011;65739;51.482;5.702;2023-03-14T01:29:55;5.20;;;0.77;;
76786;SDS011;65739;51.482;5.702;2023-03-14T01:32:20;2.45;;;0.82;;
76786;SDS011;65739;51.482;5.702;2023-03-14T01:34:46;2.03;;;0.60;;
76786;SDS011;65739;51.482;5.702;2023-03-14T01:37:11;5.78;;;1.08;;
76786;SDS011;65739;51.482;5.702;2023-03-14T01:39:37;4.05;;;0.60;;
76786;SDS011;65739;51.482;5.702;2023-03-14T01:42:03;5.60;;;0.90;;
76786;SDS011;65739;51.482;5.702;2023-03-14T01:44:45;5.43;;;1.00;;
76786;SDS011;65739;51.482;5.702;2023-03-14T01:47:22;5.13;;;1.17;;
76786;SDS011;65739;51.482;5.702;2023-03-14T01:49:50;3.58;;;0.90;;
76786;SDS011;65739;51.482;5.702;2023-03-14T01:52:22;6.43;;;0.80;;
76786;SDS011;65739;51.482;5.702;2023-03-14T01:54:53;3.88;;;0.77;;
76786;SDS011;65739;51.482;5.702;2023-03-14T01:57:39;6.15;;;1.00;;
76786;SDS011;65739;51.482;5.702;2023-03-14T02:00:12;4.55;;;1.10;;
76786;SDS011;65739;51.482;5.702;2023-03-14T02:02:41;5.10;;;0.90;;
76786;SDS011;65739;51.482;5.702;2023-03-14T02:05:12;5.47;;;0.88;;
76786;SDS011;65739;51.482;5.702;2023-03-14T02:07:44;6.35;;;1.20;;
76786;SDS011;65739;51.482;5.702;2023-03-14T02:10:12;2.45;;;0.90;;
76786;SDS011;65739;51.482;5.702;2023-03-14T02:12:39;4.80;;;1.08;;
76786;SDS011;65739;51.482;5.702;2023-03-14T02:15:05;8.48;;;1.70;;
76786;SDS011;65739;51.482;5.702;2023-03-14T02:17:31;7.15;;;1.25;;
76786;SDS011;65739;51.482;5.702;2023-03-14T02:22:35;4.65;;;1.10;;
76786;SDS011;65739;51.482;5.702;2023-03-14T02:25:06;6.80;;;1.38;;
76786;SDS011;65739;51.482;5.702;2023-03-14T02:27:39;4.90;;;1.27;;
76786;SDS011;65739;51.482;5.702;2023-03-14T02:30:09;7.80;;;1.50;;
76786;SDS011;65739;51.482;5.702;2023-03-14T02:32:37;8.07;;;1.38;;
76786;SDS011;65739;51.482;5.702;2023-03-14T02:35:07;4.57;;;1.45;;
76786;SDS011;65739;51.482;5.702;2023-03-14T02:37:38;7.47;;;1.50;;
76786;SDS011;65739;51.482;5.702;2023-03-14T02:40:09;8.32;;;1.55;;
76786;SDS011;65739;51.482;5.702;2023-03-14T02:42:35;9.13;;;1.30;;
76786;SDS011;65739;51.482;5.702;2023-03-14T02:45:25;9.55;;;1.80;;
76786;SDS011;65739;51.482;5.702;2023-03-14T02:47:47;5.00;;;1.02;;
76786;SDS011;65739;51.482;5.702;2023-03-14T02:50:19;5.45;;;1.08;;
76786;SDS011;65739;51.482;5.702;2023-03-14T02:52:47;5.18;;;1.35;;
76786;SDS011;65739;51.482;5.702;2023-03-14T02:55:13;5.88;;;1.33;;
76786;SDS011;65739;51.482;5.702;2023-03-14T02:57:38;9.43;;;1.27;;
76786;SDS011;65739;51.482;5.702;2023-03-14T03:00:04;5.68;;;1.38;;
76786;SDS011;65739;51.482;5.702;2023-03-14T03:02:31;11.73;;;1.48;;
76786;SDS011;65739;51.482;5.702;2023-03-14T03:04:57;8.48;;;1.77;;
76786;SDS011;65739;51.482;5.702;2023-03-14T03:07:23;9.82;;;1.67;;
76786;SDS011;65739;51.482;5.702;2023-03-14T03:09:48;11.75;;;1.95;;
76786;SDS011;65739;51.482;5.702;2023-03-14T03:12:14;8.25;;;1.40;;
76786;SDS011;65739;51.482;5.702;2023-03-14T03:14:39;8.52;;;2.67;;
76786;SDS011;65739;51.482;5.702;2023-03-14T03:17:05;7.75;;;1.15;;
76786;SDS011;65739;51.482;5.702;2023-03-14T03:19:31;5.88;;;1.40;;
76786;SDS011;65739;51.482;5.702;2023-03-14T03:21:57;9.40;;;1.33;;
76786;SDS011;65739;51.482;5.702;2023-03-14T03:24:23;12.27;;;1.67;;
76786;SDS011;65739;51.482;5.702;2023-03-14T03:26:49;11.80;;;1.92;;
76786;SDS011;65739;51.482;5.702;2023-03-14T03:29:15;8.00;;;1.73;;
76786;SDS011;65739;51.482;5.702;2023-03-14T03:31:41;10.88;;;1.75;;
76786;SDS011;65739;51.482;5.702;2023-03-14T03:34:06;5.95;;;1.63;;
76786;SDS011;65739;51.482;5.702;2023-03-14T03:36:32;6.05;;;1.73;;
76786;SDS011;65739;51.482;5.702;2023-03-14T03:38:58;9.00;;;1.90;;
76786;SDS011;65739;51.482;5.702;2023-03-14T03:41:23;7.97;;;1.30;;
76786;SDS011;65739;51.482;5.702;2023-03-14T03:43:49;10.40;;;1.77;;
76786;SDS011;65739;51.482;5.702;2023-03-14T03:46:15;8.93;;;1.60;;
76786;SDS011;65739;51.482;5.702;2023-03-14T03:48:40;7.32;;;1.23;;
76786;SDS011;65739;51.482;5.702;2023-03-14T03:51:06;9.00;;;1.70;;
76786;SDS011;65739;51.482;5.702;2023-03-14T03:53:32;6.72;;;1.50;;
76786;SDS011;65739;51.482;5.702;2023-03-14T03:55:57;9.23;;;1.33;;
76786;SDS011;65739;51.482;5.702;2023-03-14T03:58:23;9.90;;;1.83;;
76786;SDS011;65739;51.482;5.702;2023-03-14T04:00:48;5.63;;;1.35;;
76786;SDS011;65739;51.482;5.702;2023-03-14T04:03:14;7.05;;;1.20;;
76786;SDS011;65739;51.482;5.702;2023-03-14T04:05:40;6.20;;;1.00;;
76786;SDS011;65739;51.482;5.702;2023-03-14T04:08:05;7.00;;;1.10;;
76786;SDS011;65739;51.482;5.702;2023-03-14T04:10:33;6.70;;;1.20;;
76786;SDS011;65739;51.482;5.702;2023-03-14T04:13:00;4.07;;;0.98;;
76786;SDS011;65739;51.482;5.702;2023-03-14T04:15:25;7.60;;;1.00;;
76786;SDS011;65739;51.482;5.702;2023-03-14T04:17:51;7.18;;;1.17;;
76786;SDS011;65739;51.482;5.702;2023-03-14T04:20:21;7.57;;;1.10;;
76786;SDS011;65739;51.482;5.702;2023-03-14T04:22:46;6.30;;;1.00;;
76786;SDS011;65739;51.482;5.702;2023-03-14T04:25:12;3.70;;;1.02;;
76786;SDS011;65739;51.482;5.702;2023-03-14T04:27:38;4.90;;;0.55;;
76786;SDS011;65739;51.482;5.702;2023-03-14T04:30:03;2.75;;;0.70;;
76786;SDS011;65739;51.482;5.702;2023-03-14T04:32:29;4.88;;;0.77;;
76786;SDS011;65739;51.482;5.702;2023-03-14T04:34:55;2.75;;;0.88;;
76786;SDS011;65739;51.482;5.702;2023-03-14T04:37:20;2.80;;;1.05;;
76786;SDS011;65739;51.482;5.702;2023-03-14T04:39:46;3.67;;;0.55;;
76786;SDS011;65739;51.482;5.702;2023-03-14T04:42:11;3.33;;;0.65;;
76786;SDS011;65739;51.482;5.702;2023-03-14T04:44:37;2.40;;;0.80;;
76786;SDS011;65739;51.482;5.702;2023-03-14T04:47:02;7.50;;;0.70;;
76786;SDS011;65739;51.482;5.702;2023-03-14T04:49:28;3.40;;;0.80;;
76786;SDS011;65739;51.482;5.702;2023-03-14T04:51:53;3.80;;;0.98;;
76786;SDS011;65739;51.482;5.702;2023-03-14T04:54:19;5.32;;;0.80;;
76786;SDS011;65739;51.482;5.702;2023-03-14T04:56:45;2.78;;;1.00;;
76786;SDS011;65739;51.482;5.702;2023-03-14T04:59:10;1.70;;;0.63;;
76786;SDS011;65739;51.482;5.702;2023-03-14T05:01:36;2.78;;;0.82;;
76786;SDS011;65739;51.482;5.702;2023-03-14T05:04:01;3.85;;;1.13;;
76786;SDS011;65739;51.482;5.702;2023-03-14T05:06:27;5.28;;;1.02;;
76786;SDS011;65739;51.482;5.702;2023-03-14T05:08:53;2.47;;;1.02;;
76786;SDS011;65739;51.482;5.702;2023-03-14T05:11:18;4.07;;;1.25;;
76786;SDS011;65739;51.482;5.702;2023-03-14T05:13:44;4.45;;;0.98;;
76786;SDS011;65739;51.482;5.702;2023-03-14T05:16:10;3.67;;;1.17;;
76786;SDS011;65739;51.482;5.702;2023-03-14T05:18:36;3.70;;;1.25;;
76786;SDS011;65739;51.482;5.702;2023-03-14T05:21:03;3.13;;;1.27;;
76786;SDS011;65739;51.482;5.702;2023-03-14T05:23:29;4.63;;;1.70;;
76786;SDS011;65739;51.482;5.702;2023-03-14T05:25:55;3.97;;;1.02;;
76786;SDS011;65739;51.482;5.702;2023-03-14T05:28:20;4.57;;;1.38;;
76786;SDS011;65739;51.482;5.702;2023-03-14T05:30:46;8.50;;;2.03;;
76786;SDS011;65739;51.482;5.702;2023-03-14T05:33:12;5.22;;;1.70;;
76786;SDS011;65739;51.482;5.702;2023-03-14T05:35:37;2.47;;;1.50;;
76786;SDS011;65739;51.482;5.702;2023-03-14T05:38:03;5.38;;;1.50;;
76786;SDS011;65739;51.482;5.702;2023-03-14T05:40:28;5.80;;;1.95;;
76786;SDS011;65739;51.482;5.702;2023-03-14T05:42:54;5.80;;;1.90;;
76786;SDS011;65739;51.482;5.702;2023-03-14T05:45:20;4.60;;;1.85;;
76786;SDS011;65739;51.482;5.702;2023-03-14T05:47:45;4.43;;;2.70;;
76786;SDS011;65739;51.482;5.702;2023-03-14T05:50:11;4.20;;;2.13;;
76786;SDS011;65739;51.482;5.702;2023-03-14T05:52:37;7.40;;;2.38;;
76786;SDS011;65739;51.482;5.702;2023-03-14T05:55:03;3.90;;;2.03;;
76786;SDS011;65739;51.482;5.702;2023-03-14T05:57:29;5.25;;;2.35;;
76786;SDS011;65739;51.482;5.702;2023-03-14T05:59:55;5.80;;;2.60;;
76786;SDS011;65739;51.482;5.702;2023-03-14T06:02:20;5.55;;;2.42;;
76786;SDS011;65739;51.482;5.702;2023-03-14T06:04:46;7.35;;;2.35;;
76786;SDS011;65739;51.482;5.702;2023-03-14T06:07:11;4.55;;;2.53;;
76786;SDS011;65739;51.482;5.702;2023-03-14T06:09:37;4.97;;;2.25;;
76786;SDS011;65739;51.482;5.702;2023-03-14T06:12:04;5.50;;;2.95;;
76786;SDS011;65739;51.482;5.702;2023-03-14T06:14:30;9.50;;;3.03;;
76786;SDS011;65739;51.482;5.702;2023-03-14T06:16:56;9.82;;;3.22;;
76786;SDS011;65739;51.482;5.702;2023-03-14T06:19:23;8.30;;;2.55;;
76786;SDS011;65739;51.482;5.702;2023-03-14T06:21:50;6.10;;;3.00;;
76786;SDS011;65739;51.482;5.702;2023-03-14T06:24:15;8.45;;;3.10;;
76786;SDS011;65739;51.482;5.702;2023-03-14T06:26:41;7.07;;;3.40;;
76786;SDS011;65739;51.482;5.702;2023-03-14T06:29:06;8.43;;;3.85;;
76786;SDS011;65739;51.482;5.702;2023-03-14T06:31:32;6.53;;;3.45;;
76786;SDS011;65739;51.482;5.702;2023-03-14T06:33:58;7.93;;;3.53;;
76786;SDS011;65739;51.482;5.702;2023-03-14T06:36:24;11.45;;;4.07;;
76786;SDS011;65739;51.482;5.702;2023-03-14T06:38:53;10.52;;;3.67;;
76786;SDS011;65739;51.482;5.702;2023-03-14T06:41:18;8.05;;;3.03;;
76786;SDS011;65739;51.482;5.702;2023-03-14T06:43:44;8.57;;;3.63;;
76786;SDS011;65739;51.482;5.702;2023-03-14T06:46:09;7.07;;;3.53;;
76786;SDS011;65739;51.482;5.702;2023-03-14T06:48:35;7.90;;;3.28;;
76786;SDS011;65739;51.482;5.702;2023-03-14T06:51:00;7.05;;;3.22;;
76786;SDS011;65739;51.482;5.702;2023-03-14T06:53:26;4.63;;;2.72;;
76786;SDS011;65739;51.482;5.702;2023-03-14T06:55:52;6.15;;;3.67;;
76786;SDS011;65739;51.482;5.702;2023-03-14T06:58:17;6.53;;;3.20;;
76786;SDS011;65739;51.482;5.702;2023-03-14T07:00:43;6.38;;;3.58;;
76786;SDS011;65739;51.482;5.702;2023-03-14T07:03:09;3.58;;;3.00;;
76786;SDS011;65739;51.482;5.702;2023-03-14T07:05:39;6.85;;;2.85;;
76786;SDS011;65739;51.482;5.702;2023-03-14T07:08:05;5.35;;;3.25;;
76786;SDS011;65739;51.482;5.702;2023-03-14T07:10:31;5.38;;;3.13;;
76786;SDS011;65739;51.482;5.702;2023-03-14T07:12:57;4.50;;;2.67;;
76786;SDS011;65739;51.482;5.702;2023-03-14T07:15:23;3.90;;;2.28;;
76786;SDS011;65739;51.482;5.702;2023-03-14T07:17:48;4.68;;;2.42;;
76786;SDS011;65739;51.482;5.702;2023-03-14T07:20:14;2.58;;;1.90;;
76786;SDS011;65739;51.482;5.702;2023-03-14T07:22:42;3.60;;;2.20;;
76786;SDS011;65739;51.482;5.702;2023-03-14T07:25:08;4.22;;;2.17;;
76786;SDS011;65739;51.482;5.702;2023-03-14T07:27:36;2.20;;;2.00;;
76786;SDS011;65739;51.482;5.702;2023-03-14T07:30:03;7.53;;;2.15;;
76786;SDS011;65739;51.482;5.702;2023-03-14T07:32:29;2.30;;;2.05;;
76786;SDS011;65739;51.482;5.702;2023-03-14T07:34:54;5.03;;;2.25;;
76786;SDS011;65739;51.482;5.702;2023-03-14T07:37:20;3.85;;;1.95;;
76786;SDS011;65739;51.482;5.702;2023-03-14T07:39:45;3.15;;;1.98;;
76786;SDS011;65739;51.482;5.702;2023-03-14T07:42:14;4.60;;;2.10;;
76786;SDS011;65739;51.482;5.702;2023-03-14T07:44:39;2.60;;;1.80;;
76786;SDS011;65739;51.482;5.702;2023-03-14T07:47:05;7.28;;;2.17;;
76786;SDS011;65739;51.482;5.702;2023-03-14T07:49:30;2.95;;;2.35;;
76786;SDS011;65739;51.482;5.702;2023-03-14T07:51:56;3.05;;;1.88;;
76786;SDS011;65739;51.482;5.702;2023-03-14T07:54:23;7.72;;;2.53;;
76786;SDS011;65739;51.482;5.702;2023-03-14T07:56:49;1.33;;;0.95;;
76786;SDS011;65739;51.482;5.702;2023-03-14T07:59:16;1.15;;;0.80;;
76786;SDS011;65739;51.482;5.702;2023-03-14T08:01:42;3.92;;;0.82;;
76786;SDS011;65739;51.482;5.702;2023-03-14T08:04:13;1.58;;;0.95;;
76786;SDS011;65739;51.482;5.702;2023-03-14T08:06:38;2.95;;;1.02;;
76786;SDS011;65739;51.482;5.702;2023-03-14T08:09:04;1.60;;;0.50;;
76786;SDS011;65739;51.482;5.702;2023-03-14T08:11:30;0.93;;;0.57;;
76786;SDS011;65739;51.482;5.702;2023-03-14T08:13:56;1.17;;;0.73;;
76786;SDS011;65739;51.482;5.702;2023-03-14T08:16:21;2.38;;;1.00;;
76786;SDS011;65739;51.482;5.702;2023-03-14T08:18:50;0.95;;;0.85;;
76786;SDS011;65739;51.482;5.702;2023-03-14T08:21:17;1.27;;;0.75;;
76786;SDS011;65739;51.482;5.702;2023-03-14T08:23:43;1.10;;;1.00;;
76786;SDS011;65739;51.482;5.702;2023-03-14T08:26:09;2.50;;;1.27;;
76786;SDS011;65739;51.482;5.702;2023-03-14T08:28:38;3.40;;;1.48;;
76786;SDS011;65739;51.482;5.702;2023-03-14T08:31:10;3.22;;;1.30;;
76786;SDS011;65739;51.482;5.702;2023-03-14T08:33:39;5.78;;;1.20;;
76786;SDS011;65739;51.482;5.702;2023-03-14T08:36:05;2.90;;;1.55;;
76786;SDS011;65739;51.482;5.702;2023-03-14T08:38:31;2.08;;;1.60;;
76786;SDS011;65739;51.482;5.702;2023-03-14T08:40:57;2.33;;;1.60;;
76786;SDS011;65739;51.482;5.702;2023-03-14T08:43:45;3.33;;;1.85;;
76786;SDS011;65739;51.482;5.702;2023-03-14T08:46:17;3.13;;;2.28;;
76786;SDS011;65739;51.482;5.702;2023-03-14T08:48:52;1.35;;;1.25;;
76786;SDS011;65739;51.482;5.702;2023-03-14T08:51:18;2.03;;;1.55;;
76786;SDS011;65739;51.482;5.702;2023-03-14T08:53:47;2.38;;;1.00;;
76786;SDS011;65739;51.482;5.702;2023-03-14T08:56:15;1.75;;;1.10;;
76786;SDS011;65739;51.482;5.702;2023-03-14T08:58:41;3.42;;;1.15;;
76786;SDS011;65739;51.482;5.702;2023-03-14T09:01:09;3.00;;;0.90;;
76786;SDS011;65739;51.482;5.702;2023-03-14T09:03:35;2.88;;;0.82;;
76786;SDS011;65739;51.482;5.702;2023-03-14T09:06:06;4.15;;;0.65;;
76786;SDS011;65739;51.482;5.702;2023-03-14T09:08:33;3.22;;;0.77;;
76786;SDS011;65739;51.482;5.702;2023-03-14T09:11:00;2.35;;;1.00;;
76786;SDS011;65739;51.482;5.702;2023-03-14T09:13:25;0.88;;;0.77;;
76786;SDS011;65739;51.482;5.702;2023-03-14T09:15:52;2.78;;;1.33;;
76786;SDS011;65739;51.482;5.702;2023-03-14T09:18:20;3.75;;;0.90;;
76786;SDS011;65739;51.482;5.702;2023-03-14T09:20:45;6.18;;;1.25;;
76786;SDS011;65739;51.482;5.702;2023-03-14T09:23:11;6.00;;;1.88;;
76786;SDS011;65739;51.482;5.702;2023-03-14T09:25:37;6.13;;;1.20;;
76786;SDS011;65739;51.482;5.702;2023-03-14T09:28:03;2.75;;;0.90;;
76786;SDS011;65739;51.482;5.702;2023-03-14T09:30:29;6.35;;;1.70;;
76786;SDS011;65739;51.482;5.702;2023-03-14T09:32:54;3.15;;;1.02;;
76786;SDS011;65739;51.482;5.702;2023-03-14T09:35:20;2.72;;;1.48;;
76786;SDS011;65739;51.482;5.702;2023-03-14T09:37:45;5.25;;;2.00;;
76786;SDS011;65739;51.482;5.702;2023-03-14T09:40:12;3.95;;;1.60;;
76786;SDS011;65739;51.482;5.702;2023-03-14T09:42:46;3.00;;;1.52;;
76786;SDS011;65739;51.482;5.702;2023-03-14T09:45:26;5.45;;;2.33;;
76786;SDS011;65739;51.482;5.702;2023-03-14T09:48:03;6.55;;;2.35;;
76786;SDS011;65739;51.482;5.702;2023-03-14T09:50:43;3.10;;;2.80;;
76786;SDS011;65739;51.482;5.702;2023-03-14T09:53:23;1.20;;;1.10;;
76786;SDS011;65739;51.482;5.702;2023-03-14T09:56:25;4.78;;;0.82;;
76786;SDS011;65739;51.482;5.702;2023-03-14T09:59:05;2.47;;;0.57;;
76786;SDS011;65739;51.482;5.702;2023-03-14T10:01:41;0.57;;;0.40;;
76786;SDS011;65739;51.482;5.702;2023-03-14T10:04:20;2.60;;;0.40;;
76786;SDS011;65739;51.482;5.702;2023-03-14T10:07:14;1.30;;;0.35;;
76786;SDS011;65739;51.482;5.702;2023-03-14T10:09:46;2.55;;;0.45;;
76786;SDS011;65739;51.482;5.702;2023-03-14T10:14:45;0.75;;;0.40;;
76786;SDS011;65739;51.482;5.702;2023-03-14T10:17:19;3.28;;;0.45;;
76786;SDS011;65739;51.482;5.702;2023-03-14T10:25:37;3.55;;;0.75;;
76786;SDS011;65739;51.482;5.702;2023-03-14T10:28:11;3.58;;;0.63;;
76786;SDS011;65739;51.482;5.702;2023-03-14T10:30:52;2.25;;;0.85;;
76786;SDS011;65739;51.482;5.702;2023-03-14T10:33:25;2.10;;;0.60;;
76786;SDS011;65739;51.482;5.702;2023-03-14T10:36:35;5.60;;;0.93;;
76786;SDS011;65739;51.482;5.702;2023-03-14T10:38:46;3.65;;;0.80;;
76786;SDS011;65739;51.482;5.702;2023-03-14T10:41:20;5.97;;;0.90;;
76786;SDS011;65739;51.482;5.702;2023-03-14T10:43:54;2.00;;;0.70;;
76786;SDS011;65739;51.482;5.702;2023-03-14T10:46:23;8.63;;;0.90;;
76786;SDS011;65739;51.482;5.702;2023-03-14T10:48:51;9.88;;;2.25;;
76786;SDS011;65739;51.482;5.702;2023-03-14T10:51:26;7.10;;;1.13;;
76786;SDS011;65739;51.482;5.702;2023-03-14T10:54:12;8.10;;;1.38;;
76786;SDS011;65739;51.482;5.702;2023-03-14T10:56:47;6.63;;;1.00;;
76786;SDS011;65739;51.482;5.702;2023-03-14T10:59:25;12.93;;;1.40;;
76786;SDS011;65739;51.482;5.702;2023-03-14T11:02:13;9.23;;;1.25;;
76786;SDS011;65739;51.482;5.702;2023-03-14T11:04:55;7.97;;;1.20;;
76786;SDS011;65739;51.482;5.702;2023-03-14T11:07:44;9.32;;;1.65;;
76786;SDS011;65739;51.482;5.702;2023-03-14T11:10:21;8.18;;;1.55;;
76786;SDS011;65739;51.482;5.702;2023-03-14T11:13:21;10.60;;;1.40;;
76786;SDS011;65739;51.482;5.702;2023-03-14T11:18:35;8.70;;;1.45;;
76786;SDS011;65739;51.482;5.702;2023-03-14T11:21:17;11.25;;;1.88;;
76786;SDS011;65739;51.482;5.702;2023-03-14T11:26:37;12.82;;;1.75;;
76786;SDS011;65739;51.482;5.702;2023-03-14T11:32:04;12.02;;;1.85;;
76786;SDS011;65739;51.482;5.702;2023-03-14T11:34:52;8.50;;;1.52;;
76786;SDS011;65739;51.482;5.702;2023-03-14T11:37:40;14.10;;;2.03;;
76786;SDS011;65739;51.482;5.702;2023-03-14T11:40:13;9.02;;;2.15;;
76786;SDS011;65739;51.482;5.702;2023-03-14T11:42:43;8.55;;;1.70;;
76786;SDS011;65739;51.482;5.702;2023-03-14T12:02:46;16.83;;;2.33;;
76786;SDS011;65739;51.482;5.702;2023-03-14T12:10:55;18.25;;;2.22;;
76786;SDS011;65739;51.482;5.702;2023-03-14T12:13:28;16.02;;;2.10;;
76786;SDS011;65739;51.482;5.702;2023-03-14T12:19:12;15.25;;;2.67;;
76786;SDS011;65739;51.482;5.702;2023-03-14T12:24:35;12.57;;;2.33;;
76786;SDS011;65739;51.482;5.702;2023-03-14T12:27:05;15.07;;;2.15;;
76786;SDS011;65739;51.482;5.702;2023-03-14T12:29:34;11.68;;;2.15;;
76786;SDS011;65739;51.482;5.702;2023-03-14T12:32:26;11.75;;;1.90;;
76786;SDS011;65739;51.482;5.702;2023-03-14T12:34:52;13.07;;;2.30;;
76786;SDS011;65739;51.482;5.702;2023-03-14T12:37:33;11.73;;;2.08;;
76786;SDS011;65739;51.482;5.702;2023-03-14T12:42:58;16.27;;;2.28;;
76786;SDS011;65739;51.482;5.702;2023-03-14T12:45:29;19.85;;;3.05;;
76786;SDS011;65739;51.482;5.702;2023-03-14T12:48:00;19.30;;;2.45;;
76786;SDS011;65739;51.482;5.702;2023-03-14T12:50:38;20.80;;;2.55;;
76786;SDS011;65739;51.482;5.702;2023-03-14T12:56:04;17.63;;;2.95;;
76786;SDS011;65739;51.482;5.702;2023-03-14T12:58:47;24.98;;;3.00;;
76786;SDS011;65739;51.482;5.702;2023-03-14T13:01:56;17.15;;;2.30;;
76786;SDS011;65739;51.482;5.702;2023-03-14T13:04:31;22.35;;;2.88;;
76786;SDS011;65739;51.482;5.702;2023-03-14T13:07:11;20.20;;;2.92;;
76786;SDS011;65739;51.482;5.702;2023-03-14T13:09:50;17.92;;;2.47;;
76786;SDS011;65739;51.482;5.702;2023-03-14T13:12:27;17.08;;;2.20;;
76786;SDS011;65739;51.482;5.702;2023-03-14T13:14:57;11.05;;;1.95;;
76786;SDS011;65739;51.482;5.702;2023-03-14T13:17:32;18.45;;;2.67;;
76786;SDS011;65739;51.482;5.702;2023-03-14T13:20:00;11.85;;;2.58;;
76786;SDS011;65739;51.482;5.702;2023-03-14T13:22:36;18.15;;;2.30;;
76786;SDS011;65739;51.482;5.702;2023-03-14T13:25:05;19.27;;;2.33;;
76786;SDS011;65739;51.482;5.702;2023-03-14T13:27:34;8.63;;;1.80;;
76786;SDS011;65739;51.482;5.702;2023-03-14T13:30:17;13.38;;;1.58;;
76786;SDS011;65739;51.482;5.702;2023-03-14T13:32:46;8.43;;;1.67;;
76786;SDS011;65739;51.482;5.702;2023-03-14T13:37:53;12.23;;;1.98;;
76786;SDS011;65739;51.482;5.702;2023-03-14T13:40:24;10.18;;;1.60;;
76786;SDS011;65739;51.482;5.702;2023-03-14T13:43:04;9.15;;;1.80;;
76786;SDS011;65739;51.482;5.702;2023-03-14T13:48:16;13.60;;;2.80;;
76786;SDS011;65739;51.482;5.702;2023-03-14T13:50:46;5.22;;;1.00;;
76786;SDS011;65739;51.482;5.702;2023-03-14T13:53:15;5.32;;;1.17;;
76786;SDS011;65739;51.482;5.702;2023-03-14T13:55:41;5.80;;;1.10;;
76786;SDS011;65739;51.482;5.702;2023-03-14T13:58:11;6.32;;;1.10;;
76786;SDS011;65739;51.482;5.702;2023-03-14T14:00:53;6.57;;;1.20;;
76786;SDS011;65739;51.482;5.702;2023-03-14T14:03:21;7.57;;;1.60;;
76786;SDS011;65739;51.482;5.702;2023-03-14T14:05:47;6.20;;;1.55;;
76786;SDS011;65739;51.482;5.702;2023-03-14T14:08:13;6.40;;;1.40;;
76786;SDS011;65739;51.482;5.702;2023-03-14T14:10:39;7.90;;;1.50;;
76786;SDS011;65739;51.482;5.702;2023-03-14T14:13:06;7.75;;;1.42;;
76786;SDS011;65739;51.482;5.702;2023-03-14T14:15:40;8.52;;;1.23;;
76786;SDS011;65739;51.482;5.702;2023-03-14T14:18:09;10.05;;;1.50;;
76786;SDS011;65739;51.482;5.702;2023-03-14T14:20:38;5.90;;;1.35;;
76786;SDS011;65739;51.482;5.702;2023-03-14T14:23:07;11.27;;;1.60;;
76786;SDS011;65739;51.482;5.702;2023-03-14T14:25:36;8.57;;;1.50;;
76786;SDS011;65739;51.482;5.702;2023-03-14T14:30:42;7.50;;;1.20;;
76786;SDS011;65739;51.482;5.702;2023-03-14T14:33:26;9.25;;;1.50;;
76786;SDS011;65739;51.482;5.702;2023-03-14T14:35:56;5.72;;;1.27;;
76786;SDS011;65739;51.482;5.702;2023-03-14T14:38:24;9.68;;;1.58;;
76786;SDS011;65739;51.482;5.702;2023-03-14T14:40:54;4.65;;;1.38;;
76786;SDS011;65739;51.482;5.702;2023-03-14T14:43:26;7.10;;;1.33;;
76786;SDS011;65739;51.482;5.702;2023-03-14T14:45:53;8.43;;;1.50;;
76786;SDS011;65739;51.482;5.702;2023-03-14T14:48:24;7.30;;;1.17;;
76786;SDS011;65739;51.482;5.702;2023-03-14T14:50:59;6.10;;;1.30;;
76786;SDS011;65739;51.482;5.702;2023-03-14T14:55:55;2.88;;;1.05;;
76786;SDS011;65739;51.482;5.702;2023-03-14T14:58:25;6.20;;;1.07;;
76786;SDS011;65739;51.482;5.702;2023-03-14T15:00:54;6.18;;;1.20;;
76786;SDS011;65739;51.482;5.702;2023-03-14T15:03:36;10.23;;;1.23;;
76786;SDS011;65739;51.482;5.702;2023-03-14T15:06:02;4.70;;;1.02;;
76786;SDS011;65739;51.482;5.702;2023-03-14T15:08:28;8.02;;;1.17;;
76786;SDS011;65739;51.482;5.702;2023-03-14T15:10:55;10.00;;;1.10;;
76786;SDS011;65739;51.482;5.702;2023-03-14T15:13:21;5.93;;;1.30;;
76786;SDS011;65739;51.482;5.702;2023-03-14T15:15:48;7.43;;;1.55;;
76786;SDS011;65739;51.482;5.702;2023-03-14T15:18:21;7.03;;;1.02;;
76786;SDS011;65739;51.482;5.702;2023-03-14T15:20:48;12.20;;;1.40;;
76786;SDS011;65739;51.482;5.702;2023-03-14T15:23:18;6.18;;;1.40;;
76786;SDS011;65739;51.482;5.702;2023-03-14T15:25:45;8.00;;;1.05;;
76786;SDS011;65739;51.482;5.702;2023-03-14T15:28:16;7.47;;;1.13;;
76786;SDS011;65739;51.482;5.702;2023-03-14T15:30:44;7.78;;;1.35;;
76786;SDS011;65739;51.482;5.702;2023-03-14T15:33:10;4.95;;;0.98;;
76786;SDS011;65739;51.482;5.702;2023-03-14T15:35:37;7.35;;;1.20;;
76786;SDS011;65739;51.482;5.702;2023-03-14T15:38:03;4.63;;;1.00;;
76786;SDS011;65739;51.482;5.702;2023-03-14T15:40:29;11.52;;;1.60;;
76786;SDS011;65739;51.482;5.702;2023-03-14T15:42:55;7.85;;;1.30;;
76786;SDS011;65739;51.482;5.702;2023-03-14T15:45:21;8.98;;;1.50;;
76786;SDS011;65739;51.482;5.702;2023-03-14T15:47:47;6.78;;;1.40;;
76786;SDS011;65739;51.482;5.702;2023-03-14T15:50:16;10.35;;;1.75;;
76786;SDS011;65739;51.482;5.702;2023-03-14T15:52:43;11.15;;;1.88;;
76786;SDS011;65739;51.482;5.702;2023-03-14T15:58:27;8.23;;;1.05;;
76786;SDS011;65739;51.482;5.702;2023-03-14T16:00:53;7.50;;;0.90;;
76786;SDS011;65739;51.482;5.702;2023-03-14T16:03:19;15.35;;;1.58;;
76786;SDS011;65739;51.482;5.702;2023-03-14T16:06:00;8.00;;;1.30;;